createdAt,value
2023-02-13T17:26:15.016Z,12.13
2023-02-13T17:31:20.285Z,12.84
2023-02-13T17:36:25.749Z,13.18
2023-02-13T17:41:33.840Z,13.35
2023-02-13T17:46:39.094Z,13.40
2023-02-13T17:51:45.939Z,13.40
2023-02-13T17:56:53.865Z,13.33
2023-02-13T18:01:59.684Z,13.23
2023-02-13T18:07:05.028Z,13.10
2023-02-13T18:12:15.870Z,13.00
2023-02-13T18:17:21.702Z,12.88
2023-02-13T18:22:27.120Z,12.79
2023-02-13T18:27:34.980Z,12.72
2023-02-13T18:32:40.232Z,12.61
2023-02-13T18:37:45.489Z,12.55
2023-02-13T18:42:53.342Z,12.50
2023-02-13T18:47:58.542Z,12.41
2023-02-13T18:53:04.096Z,12.33
2023-02-13T18:58:11.884Z,12.29
2023-02-13T19:03:17.499Z,12.25
2023-02-13T19:08:22.725Z,12.22
2023-02-13T19:13:30.643Z,12.17
2023-02-13T19:18:38.364Z,12.12
2023-02-13T19:23:43.769Z,12.10
2023-02-13T19:28:51.789Z,12.12
2023-02-13T19:33:56.957Z,12.08
2023-02-13T19:39:03.859Z,12.01
2023-02-13T19:44:11.861Z,11.94
2023-02-13T19:49:16.947Z,11.85
2023-02-13T19:54:22.351Z,11.75
2023-02-13T19:59:32.668Z,11.68
2023-02-13T20:04:39.329Z,11.57
2023-02-13T20:09:44.968Z,11.50
2023-02-13T20:14:52.706Z,11.45
2023-02-13T20:19:58.302Z,11.34
2023-02-13T20:25:03.417Z,11.27
2023-02-13T20:30:13.295Z,11.21
2023-02-13T20:35:18.827Z,11.13
2023-02-13T20:40:24.207Z,11.07
2023-02-13T20:45:32.327Z,11.01
2023-02-13T20:50:37.721Z,10.95
2023-02-13T20:55:42.928Z,10.90
2023-02-13T21:00:50.658Z,10.86
2023-02-13T21:05:55.836Z,10.77
2023-02-13T21:11:04.444Z,10.72
2023-02-13T21:16:14.260Z,10.65
2023-02-13T21:21:19.907Z,10.60
2023-02-13T21:26:25.302Z,10.55
2023-02-13T21:31:34.750Z,10.53
2023-02-13T21:36:40.173Z,10.48
2023-02-13T21:41:45.786Z,10.40
2023-02-13T21:46:53.629Z,10.33
2023-02-13T21:51:58.692Z,10.23
2023-02-13T21:57:03.919Z,10.17
2023-02-13T22:02:13.103Z,10.12
2023-02-13T22:07:18.367Z,10.04
2023-02-13T22:12:23.480Z,9.99
2023-02-13T22:17:34.739Z,9.92
2023-02-13T22:22:39.835Z,9.87
2023-02-13T22:27:49.563Z,9.82
2023-02-13T22:32:59.102Z,9.77
2023-02-13T22:38:04.465Z,9.70
2023-02-13T22:43:09.708Z,9.67
2023-02-13T22:48:17.361Z,9.64
2023-02-13T22:53:22.569Z,9.58
2023-02-13T22:58:27.834Z,9.54
2023-02-13T23:03:37.701Z,9.49
2023-02-13T23:08:42.957Z,9.44
2023-02-13T23:13:48.490Z,9.40
2023-02-13T23:18:57.129Z,9.34
2023-02-13T23:24:02.252Z,9.28
2023-02-13T23:29:07.353Z,9.27
